Time,TemperatureF,DewpointF,PressureIn,WindDirection,WindDirectionDegrees,WindSpeedMPH,WindSpeedGustMPH,Humidity,HourlyPrecipIn,Conditions,Clouds,dailyrainin,SoftwareType,DateUTC
2013-06-22 00:02:00,83.3,70.0,29.82,SSW,206,2.0,15.0,65,0.00,,,0.00,weatherlink.com 1.10,2013-06-22 05:02:00,
2013-06-22 00:17:00,83.1,71.0,29.82,SSE,160,5.0,15.0,66,0.00,,,0.00,weatherlink.com 1.10,2013-06-22 05:17:00,
2013-06-22 00:32:00,82.6,70.0,29.82,SW,227,7.0,18.0,66,0.00,,,0.00,weatherlink.com 1.10,2013-06-22 05:32:00,
2013-06-22 00:47:00,82.4,70.0,29.82,SSW,200,5.0,17.0,67,0.00,,,0.00,weatherlink.com 1.10,2013-06-22 05:47:00,
2013-06-22 01:02:00,82.1,71.0,29.82,SSW,207,7.0,14.0,68,0.00,,,0.00,weatherlink.com 1.10,2013-06-22 06:02:00,
2013-06-22 01:17:00,82.0,70.0,29.83,SW,236,3.0,15.0,68,0.00,,,0.00,weatherlink.com 1.10,2013-06-22 06:17:00,
2013-06-22 01:32:00,81.6,71.0,29.82,SW,230,15.0,18.0,69,0.00,,,0.00,weatherlink.com 1.10,2013-06-22 06:32:00,
2013-06-22 01:47:00,81.0,71.0,29.82,SSW,195,5.0,10.0,71,0.00,,,0.00,weatherlink.com 1.10,2013-06-22 06:47:00,
2013-06-22 02:17:00,80.3,71.0,29.85,SW,236,3.0,10.0,73,0.00,,,0.00,weatherlink.com 1.10,2013-06-22 07:17:00,
2013-06-22 02:32:00,80.4,71.0,29.86,SW,235,1.0,8.0,74,0.00,,,0.00,weatherlink.com 1.10,2013-06-22 07:32:00,
2013-06-22 02:47:00,80.4,71.0,29.88,SW,234,2.0,7.0,74,0.00,,,0.00,weatherlink.com 1.10,2013-06-22 07:47:00,
2013-06-22 03:17:00,81.2,68.0,29.91,WSW,239,5.0,19.0,64,0.00,,,0.00,weatherlink.com 1.10,2013-06-22 08:17:00,
2013-06-22 03:32:00,80.7,59.0,29.92,NNE,31,8.0,16.0,48,0.00,,,0.00,weatherlink.com 1.10,2013-06-22 08:32:00,
2013-06-22 03:47:00,79.3,61.0,29.93,NNE,16,5.0,15.0,53,0.00,,,0.00,weatherlink.com 1.10,2013-06-22 08:47:00,
2013-06-22 04:03:00,73.3,63.0,29.89,NNE,26,0.0,8.0,69,0.04,,,0.04,weatherlink.com 1.10,2013-06-22 09:03:00,
2013-06-22 04:18:00,71.2,62.0,29.89,ESE,104,2.0,5.0,73,0.04,,,0.04,weatherlink.com 1.10,2013-06-22 09:18:00,
2013-06-22 04:33:00,70.4,63.0,29.86,East,93,0.0,4.0,76,0.04,,,0.04,weatherlink.com 1.10,2013-06-22 09:33:00,
2013-06-22 04:48:00,70.1,62.0,29.87,ENE,77,0.0,7.0,76,0.03,,,0.04,weatherlink.com 1.10,2013-06-22 09:48:00,
2013-06-22 05:03:00,68.7,64.0,29.90,North,360,0.0,0.0,85,0.00,,,0.04,weatherlink.com 1.10,2013-06-22 10:03:00,
2013-06-22 05:18:00,68.4,63.0,29.92,NE,38,0.0,0.0,84,0.00,,,0.04,weatherlink.com 1.10,2013-06-22 10:18:00,
2013-06-22 05:33:00,68.5,64.0,29.93,NE,38,0.0,0.0,85,0.00,,,0.04,weatherlink.com 1.10,2013-06-22 10:33:00,
2013-06-22 05:48:00,68.6,65.0,29.94,NE,37,0.0,0.0,87,0.00,,,0.04,weatherlink.com 1.10,2013-06-22 10:48:00,
2013-06-22 06:03:00,69.3,65.0,29.94,East,95,0.0,4.0,85,0.00,,,0.04,weatherlink.com 1.10,2013-06-22 11:03:00,
2013-06-22 06:18:00,69.5,65.0,29.94,East,81,0.0,0.0,84,0.00,,,0.04,weatherlink.com 1.10,2013-06-22 11:18:00,
2013-06-22 06:33:00,70.1,64.0,29.94,North,349,2.0,4.0,81,0.00,,,0.04,weatherlink.com 1.10,2013-06-22 11:33:00,
2013-06-22 06:48:00,70.7,66.0,29.94,NNE,18,0.0,0.0,84,0.00,,,0.04,weatherlink.com 1.10,2013-06-22 11:48:00,
2013-06-22 07:03:00,70.8,65.0,29.94,NNE,12,3.0,5.0,81,0.00,,,0.04,weatherlink.com 1.10,2013-06-22 12:03:00,
2013-06-22 07:18:00,71.8,65.0,29.92,East,83,0.0,6.0,80,0.00,,,0.04,weatherlink.com 1.10,2013-06-22 12:18:00,
2013-06-22 07:33:00,74.0,65.0,29.91,East,84,4.0,7.0,74,0.00,,,0.04,weatherlink.com 1.10,2013-06-22 12:33:00,
2013-06-22 07:48:00,75.9,65.0,29.91,ENE,58,2.0,7.0,70,0.00,,,0.04,weatherlink.com 1.10,2013-06-22 12:48:00,
2013-06-22 08:03:00,77.8,66.0,29.91,ESE,116,1.0,3.0,67,0.00,,,0.04,weatherlink.com 1.10,2013-06-22 13:03:00,
2013-06-22 08:18:00,78.7,65.0,29.92,NNE,22,4.0,6.0,62,0.00,,,0.04,weatherlink.com 1.10,2013-06-22 13:18:00,
2013-06-22 08:33:00,77.5,65.0,29.95,NW,325,0.0,9.0,65,0.00,,,0.04,weatherlink.com 1.10,2013-06-22 13:33:00,
2013-06-22 08:48:00,74.9,65.0,29.96,NNW,333,3.0,12.0,71,0.00,,,0.04,weatherlink.com 1.10,2013-06-22 13:48:00,
2013-06-22 09:03:00,74.3,66.0,29.97,NNE,25,0.0,14.0,74,0.00,,,0.04,weatherlink.com 1.10,2013-06-22 14:03:00,
2013-06-22 09:18:00,74.3,66.0,29.97,North,6,7.0,13.0,75,0.00,,,0.04,weatherlink.com 1.10,2013-06-22 14:18:00,
2013-06-22 09:33:00,73.4,65.0,29.98,NNW,343,6.0,12.0,75,0.00,,,0.04,weatherlink.com 1.10,2013-06-22 14:33:00,
2013-06-22 09:48:00,72.6,64.0,29.97,North,350,2.0,13.0,74,0.00,,,0.04,weatherlink.com 1.10,2013-06-22 14:48:00,
2013-06-22 10:03:00,72.3,64.0,29.94,East,91,15.0,17.0,75,0.00,,,0.04,weatherlink.com 1.10,2013-06-22 15:03:00,
2013-06-22 10:18:00,75.4,65.0,29.91,East,93,11.0,22.0,70,0.00,,,0.04,weatherlink.com 1.10,2013-06-22 15:18:00,
2013-06-22 10:33:00,76.7,65.0,29.91,East,95,12.0,20.0,67,0.00,,,0.04,weatherlink.com 1.10,2013-06-22 15:33:00,
2013-06-22 10:48:00,78.3,67.0,29.90,SE,124,5.0,15.0,68,0.00,,,0.04,weatherlink.com 1.10,2013-06-22 15:48:00,
2013-06-22 11:03:00,79.3,66.0,29.89,East,98,8.0,16.0,64,0.00,,,0.04,weatherlink.com 1.10,2013-06-22 16:03:00,
2013-06-22 11:18:00,80.7,66.0,29.89,ESE,110,6.0,16.0,61,0.00,,,0.04,weatherlink.com 1.10,2013-06-22 16:18:00,
2013-06-22 11:33:00,81.6,67.0,29.89,East,87,11.0,20.0,61,0.00,,,0.04,weatherlink.com 1.10,2013-06-22 16:33:00,
2013-06-22 11:48:00,82.7,67.0,29.89,ESE,103,12.0,21.0,60,0.00,,,0.04,weatherlink.com 1.10,2013-06-22 16:48:00,
2013-06-22 12:03:00,83.3,68.0,29.87,ESE,116,5.0,21.0,60,0.00,,,0.04,weatherlink.com 1.10,2013-06-22 17:03:00,
2013-06-22 12:18:00,83.8,68.0,29.86,East,97,9.0,23.0,60,0.00,,,0.04,weatherlink.com 1.10,2013-06-22 17:18:00,
2013-06-22 12:33:00,84.2,70.0,29.84,ESE,120,6.0,27.0,62,0.00,,,0.04,weatherlink.com 1.10,2013-06-22 17:33:00,
2013-06-22 12:48:00,85.1,71.0,29.85,SE,133,2.0,21.0,62,0.00,,,0.04,weatherlink.com 1.10,2013-06-22 17:48:00,
2013-06-22 13:03:00,85.9,72.0,29.83,SSE,156,12.0,19.0,64,0.00,,,0.04,weatherlink.com 1.10,2013-06-22 18:03:00,
2013-06-22 13:18:00,86.9,72.0,29.82,SE,143,6.0,22.0,61,0.00,,,0.04,weatherlink.com 1.10,2013-06-22 18:18:00,
2013-06-22 13:33:00,87.7,72.0,29.81,SE,130,9.0,18.0,59,0.00,,,0.04,weatherlink.com 1.10,2013-06-22 18:33:00,
2013-06-22 13:48:00,87.9,72.0,29.81,East,93,9.0,20.0,59,0.00,,,0.04,weatherlink.com 1.10,2013-06-22 18:48:00,
2013-06-22 14:03:00,88.2,72.0,29.82,SSW,202,5.0,20.0,59,0.00,,,0.04,weatherlink.com 1.10,2013-06-22 19:03:00,
2013-06-22 14:18:00,88.3,72.0,29.83,SE,137,10.0,17.0,58,0.00,,,0.04,weatherlink.com 1.10,2013-06-22 19:18:00,
2013-06-22 14:33:00,87.7,72.0,29.82,ESE,111,0.0,15.0,60,0.00,,,0.04,weatherlink.com 1.10,2013-06-22 19:33:00,
2013-06-22 14:48:00,87.2,72.0,29.81,ESE,122,5.0,13.0,60,0.00,,,0.04,weatherlink.com 1.10,2013-06-22 19:48:00,
2013-06-22 15:03:00,88.4,72.0,29.80,South,169,16.0,18.0,58,0.00,,,0.04,weatherlink.com 1.10,2013-06-22 20:03:00,
2013-06-22 15:19:00,89.8,71.0,29.80,SSE,163,7.0,22.0,54,0.00,,,0.04,weatherlink.com 1.10,2013-06-22 20:19:00,
2013-06-22 15:34:00,90.7,70.0,29.79,South,173,7.0,17.0,51,0.00,,,0.04,weatherlink.com 1.10,2013-06-22 20:34:00,
2013-06-22 15:49:00,90.6,70.0,29.79,South,190,7.0,21.0,51,0.00,,,0.04,weatherlink.com 1.10,2013-06-22 20:49:00,
2013-06-22 16:04:00,90.3,70.0,29.79,South,187,10.0,18.0,51,0.00,,,0.04,weatherlink.com 1.10,2013-06-22 21:04:00,
2013-06-22 16:19:00,90.6,70.0,29.78,SSW,202,4.0,20.0,51,0.00,,,0.04,weatherlink.com 1.10,2013-06-22 21:19:00,
2013-06-22 16:34:00,90.8,68.0,29.79,SW,216,3.0,21.0,48,0.00,,,0.04,weatherlink.com 1.10,2013-06-22 21:34:00,
2013-06-22 16:49:00,89.9,69.0,29.79,SW,218,7.0,18.0,50,0.00,,,0.04,weatherlink.com 1.10,2013-06-22 21:49:00,
2013-06-22 17:04:00,89.7,70.0,29.79,South,173,9.0,16.0,52,0.00,,,0.04,weatherlink.com 1.10,2013-06-22 22:04:00,
2013-06-22 17:19:00,90.0,71.0,29.79,SSW,204,8.0,16.0,53,0.00,,,0.04,weatherlink.com 1.10,2013-06-22 22:19:00,
2013-06-22 17:34:00,89.6,70.0,29.79,SSW,194,12.0,13.0,53,0.00,,,0.04,weatherlink.com 1.10,2013-06-22 22:34:00,
2013-06-22 17:49:00,89.4,71.0,29.79,South,178,9.0,13.0,54,0.00,,,0.04,weatherlink.com 1.10,2013-06-22 22:49:00,
2013-06-22 18:04:00,89.1,70.0,29.78,SSE,166,0.0,15.0,53,0.00,,,0.04,weatherlink.com 1.10,2013-06-22 23:04:00,
2013-06-22 18:19:00,89.2,67.0,29.78,SW,217,7.0,20.0,48,0.00,,,0.04,weatherlink.com 1.10,2013-06-22 23:19:00,
2013-06-22 18:34:00,88.7,68.0,29.78,SSW,195,1.0,16.0,50,0.00,,,0.04,weatherlink.com 1.10,2013-06-22 23:34:00,
2013-06-22 18:49:00,88.5,68.0,29.77,SE,133,4.0,19.0,51,0.00,,,0.04,weatherlink.com 1.10,2013-06-22 23:49:00,
2013-06-22 19:04:00,88.1,67.0,29.77,SE,139,12.0,15.0,49,0.00,,,0.04,weatherlink.com 1.10,2013-06-23 00:04:00,
2013-06-22 19:19:00,87.6,67.0,29.77,South,189,4.0,13.0,50,0.00,,,0.04,weatherlink.com 1.10,2013-06-23 00:19:00,
2013-06-22 19:34:00,87.2,67.0,29.77,SE,145,1.0,14.0,52,0.00,,,0.04,weatherlink.com 1.10,2013-06-23 00:34:00,
2013-06-22 19:49:00,86.7,67.0,29.78,South,189,6.0,13.0,52,0.00,,,0.04,weatherlink.com 1.10,2013-06-23 00:49:00,
2013-06-22 20:04:00,86.1,66.0,29.78,SSE,159,4.0,12.0,52,0.00,,,0.04,weatherlink.com 1.10,2013-06-23 01:04:00,
2013-06-22 20:19:00,85.5,66.0,29.78,South,173,2.0,11.0,53,0.00,,,0.04,weatherlink.com 1.10,2013-06-23 01:19:00,
2013-06-22 20:34:00,84.8,66.0,29.78,SSW,204,8.0,12.0,54,0.00,,,0.04,weatherlink.com 1.10,2013-06-23 01:34:00,
2013-06-22 20:49:00,84.2,67.0,29.77,South,183,3.0,10.0,56,0.00,,,0.04,weatherlink.com 1.10,2013-06-23 01:49:00,
2013-06-22 21:04:00,83.3,67.0,29.78,East,91,1.0,11.0,58,0.00,,,0.04,weatherlink.com 1.10,2013-06-23 02:04:00,
2013-06-22 21:19:00,82.6,67.0,29.78,SE,145,5.0,15.0,59,0.00,,,0.04,weatherlink.com 1.10,2013-06-23 02:19:00,
2013-06-22 21:34:00,82.3,66.0,29.78,SE,145,0.0,11.0,59,0.00,,,0.04,weatherlink.com 1.10,2013-06-23 02:34:00,
2013-06-22 21:49:00,81.8,66.0,29.79,SSE,166,0.0,13.0,60,0.00,,,0.04,weatherlink.com 1.10,2013-06-23 02:49:00,
2013-06-22 22:04:00,81.8,67.0,29.80,SSW,195,5.0,13.0,61,0.00,,,0.04,weatherlink.com 1.10,2013-06-23 03:04:00,
2013-06-22 22:19:00,81.8,68.0,29.81,South,183,7.0,15.0,63,0.00,,,0.04,weatherlink.com 1.10,2013-06-23 03:19:00,
2013-06-22 22:34:00,81.6,68.0,29.82,SE,145,10.0,13.0,63,0.00,,,0.04,weatherlink.com 1.10,2013-06-23 03:34:00,
2013-06-22 22:49:00,81.3,68.0,29.82,SSE,155,5.0,13.0,64,0.00,,,0.04,weatherlink.com 1.10,2013-06-23 03:49:00,
2013-06-22 23:04:00,81.1,68.0,29.82,South,173,9.0,13.0,65,0.00,,,0.04,weatherlink.com 1.10,2013-06-23 04:04:00,
2013-06-22 23:19:00,81.0,69.0,29.81,SE,137,4.0,13.0,66,0.00,,,0.04,weatherlink.com 1.10,2013-06-23 04:19:00,
2013-06-22 23:34:00,80.7,68.0,29.81,South,189,8.0,16.0,66,0.00,,,0.04,weatherlink.com 1.10,2013-06-23 04:34:00,
2013-06-22 23:49:00,80.4,68.0,29.81,SSW,202,3.0,13.0,66,0.00,,,0.04,weatherlink.com 1.10,2013-06-23 04:49:00,